TimeHST,TemperatureF,Dew PointF,Humidity,Sea Level PressureIn,VisibilityMPH,Wind Direction,Wind SpeedMPH,Gust SpeedMPH,PrecipitationIn,Events,Conditions,WindDirDegrees,DateUTC
12:53 AM,61.0,55.9,83,29.96,-9999.0,Variable,3.5,-,N/A,,Clear,0,2013-01-16 10:53:00
1:53 AM,60.1,55.0,83,29.96,-9999.0,Calm,Calm,-,N/A,,Clear,0,2013-01-16 11:53:00
2:53 AM,59.0,54.0,83,29.96,-9999.0,NNE,3.5,-,N/A,,Clear,30,2013-01-16 12:53:00
3:53 AM,57.9,53.1,84,29.95,-9999.0,Calm,Calm,-,N/A,,Clear,0,2013-01-16 13:53:00
4:53 AM,57.0,52.0,83,29.96,-9999.0,NE,3.5,-,N/A,,Clear,40,2013-01-16 14:53:00
5:53 AM,57.0,52.0,83,29.96,-9999.0,NE,3.5,-,N/A,,Clear,40,2013-01-16 15:53:00
6:53 AM,57.0,52.0,83,29.97,-9999.0,NE,3.5,-,N/A,,Clear,40,2013-01-16 16:53:00
7:53 AM,59.0,53.1,81,29.99,-9999.0,Calm,Calm,-,N/A,,Clear,0,2013-01-16 17:53:00
8:53 AM,68.0,55.9,65,29.99,10.0,Calm,Calm,-,N/A,,Clear,0,2013-01-16 18:53:00
9:53 AM,75.0,60.1,60,30.00,-9999.0,WNW,9.2,-,N/A,,Clear,290,2013-01-16 19:53:00
10:53 AM,77.0,60.1,56,29.98,-9999.0,WNW,11.5,19.6,N/A,,Partly Cloudy,300,2013-01-16 20:53:00
11:53 AM,79.0,60.1,52,29.94,10.0,WNW,12.7,-,N/A,,Clear,300,2013-01-16 21:53:00
12:53 PM,77.0,59.0,54,29.91,10.0,WNW,15.0,-,N/A,,Mostly Cloudy,290,2013-01-16 22:53:00
1:53 PM,78.1,59.0,52,29.88,10.0,WNW,13.8,-,N/A,,Partly Cloudy,290,2013-01-16 23:53:00
2:53 PM,78.1,60.1,54,29.87,-9999.0,West,12.7,-,N/A,,Partly Cloudy,280,2013-01-17 00:53:00
3:53 PM,77.0,57.9,52,29.88,-9999.0,WNW,17.3,-,N/A,,Partly Cloudy,290,2013-01-17 01:53:00
4:53 PM,75.0,59.0,57,29.89,10.0,WNW,13.8,-,N/A,,Clear,290,2013-01-17 02:53:00
5:53 PM,73.9,61.0,64,29.91,10.0,NW,10.4,-,N/A,,Clear,310,2013-01-17 03:53:00
6:53 PM,71.1,60.1,68,29.93,10.0,Variable,3.5,-,N/A,,Partly Cloudy,0,2013-01-17 04:53:00
7:53 PM,70.0,60.1,71,29.94,10.0,Calm,Calm,-,N/A,,Mostly Cloudy,0,2013-01-17 05:53:00
8:53 PM,70.0,59.0,68,29.95,10.0,Variable,3.5,-,N/A,,Mostly Cloudy,0,2013-01-17 06:53:00
9:53 PM,70.0,60.1,71,29.95,10.0,Variable,3.5,-,N/A,,Mostly Cloudy,0,2013-01-17 07:53:00
10:53 PM,69.1,61.0,75,29.94,10.0,Variable,3.5,-,N/A,,Overcast,0,2013-01-17 08:53:00
11:35 PM,69.8,62.6,78,29.92,-9999.0,Variable,4.6,-,N/A,,Mostly Cloudy,0,2013-01-17 09:35:00
11:53 PM,68.0,62.1,81,29.94,-9999.0,Variable,3.5,-,N/A,,Partly Cloudy,0,2013-01-17 09:53:00